sensor_id;sensor_type;location;lat;lon;timestamp;P1;durP1;ratioP1;P2;durP2;ratioP2
37823;SDS011;23667;43.246;26.576;2022-07-10T00:02:08;6.38;;;3.35;;
37823;SDS011;23667;43.246;26.576;2022-07-10T00:04:34;4.80;;;3.00;;
37823;SDS011;23667;43.246;26.576;2022-07-10T00:06:59;4.55;;;3.20;;
37823;SDS011;23667;43.246;26.576;2022-07-10T00:09:27;3.55;;;3.25;;
37823;SDS011;23667;43.246;26.576;2022-07-10T00:11:53;6.45;;;3.03;;
37823;SDS011;23667;43.246;26.576;2022-07-10T00:14:19;4.78;;;3.50;;
37823;SDS011;23667;43.246;26.576;2022-07-10T00:16:45;3.88;;;3.33;;
37823;SDS011;23667;43.246;26.576;2022-07-10T00:19:11;7.15;;;3.33;;
37823;SDS011;23667;43.246;26.576;2022-07-10T00:21:36;5.88;;;3.50;;
37823;SDS011;23667;43.246;26.576;2022-07-10T00:24:02;4.90;;;3.83;;
37823;SDS011;23667;43.246;26.576;2022-07-10T00:26:28;7.78;;;3.80;;
37823;SDS011;23667;43.246;26.576;2022-07-10T00:28:53;4.60;;;3.60;;
37823;SDS011;23667;43.246;26.576;2022-07-10T00:31:20;5.93;;;4.03;;
37823;SDS011;23667;43.246;26.576;2022-07-10T00:33:45;4.20;;;3.80;;
37823;SDS011;23667;43.246;26.576;2022-07-10T00:36:11;4.20;;;3.80;;
37823;SDS011;23667;43.246;26.576;2022-07-10T00:38:37;6.30;;;4.05;;
37823;SDS011;23667;43.246;26.576;2022-07-10T00:41:02;5.03;;;3.88;;
37823;SDS011;23667;43.246;26.576;2022-07-10T00:43:28;5.47;;;4.55;;
37823;SDS011;23667;43.246;26.576;2022-07-10T00:45:53;6.10;;;4.20;;
37823;SDS011;23667;43.246;26.576;2022-07-10T00:48:19;4.25;;;3.85;;
37823;SDS011;23667;43.246;26.576;2022-07-10T00:50:44;6.13;;;4.20;;
37823;SDS011;23667;43.246;26.576;2022-07-10T00:53:14;5.80;;;4.18;;
37823;SDS011;23667;43.246;26.576;2022-07-10T00:55:39;5.93;;;3.88;;
37823;SDS011;23667;43.246;26.576;2022-07-10T00:58:07;6.13;;;4.05;;
37823;SDS011;23667;43.246;26.576;2022-07-10T01:00:35;4.53;;;4.13;;
37823;SDS011;23667;43.246;26.576;2022-07-10T01:03:04;6.13;;;4.50;;
37823;SDS011;23667;43.246;26.576;2022-07-10T01:05:30;5.57;;;4.35;;
37823;SDS011;23667;43.246;26.576;2022-07-10T01:07:56;4.50;;;4.10;;
37823;SDS011;23667;43.246;26.576;2022-07-10T01:10:21;5.13;;;4.55;;
37823;SDS011;23667;43.246;26.576;2022-07-10T01:12:47;10.07;;;5.10;;
37823;SDS011;23667;43.246;26.576;2022-07-10T01:15:13;7.45;;;5.32;;
37823;SDS011;23667;43.246;26.576;2022-07-10T01:17:39;6.57;;;5.07;;
37823;SDS011;23667;43.246;26.576;2022-07-10T01:20:05;6.05;;;5.53;;
37823;SDS011;23667;43.246;26.576;2022-07-10T01:22:32;8.88;;;5.28;;
37823;SDS011;23667;43.246;26.576;2022-07-10T01:24:58;5.53;;;4.97;;
37823;SDS011;23667;43.246;26.576;2022-07-10T01:27:23;9.32;;;6.13;;
37823;SDS011;23667;43.246;26.576;2022-07-10T01:29:48;9.45;;;5.75;;
37823;SDS011;23667;43.246;26.576;2022-07-10T01:32:16;9.10;;;5.65;;
37823;SDS011;23667;43.246;26.576;2022-07-10T01:34:41;7.50;;;5.40;;
37823;SDS011;23667;43.246;26.576;2022-07-10T01:37:07;7.75;;;5.15;;
37823;SDS011;23667;43.246;26.576;2022-07-10T01:39:32;6.25;;;5.70;;
37823;SDS011;23667;43.246;26.576;2022-07-10T01:41:58;8.00;;;5.70;;
37823;SDS011;23667;43.246;26.576;2022-07-10T01:44:24;7.07;;;5.30;;
37823;SDS011;23667;43.246;26.576;2022-07-10T01:46:49;7.80;;;5.88;;
37823;SDS011;23667;43.246;26.576;2022-07-10T01:49:15;5.50;;;5.00;;
37823;SDS011;23667;43.246;26.576;2022-07-10T01:51:40;6.93;;;6.25;;
37823;SDS011;23667;43.246;26.576;2022-07-10T01:54:07;6.38;;;5.75;;
37823;SDS011;23667;43.246;26.576;2022-07-10T01:56:32;6.13;;;5.47;;
37823;SDS011;23667;43.246;26.576;2022-07-10T01:58:58;9.07;;;5.57;;
37823;SDS011;23667;43.246;26.576;2022-07-10T02:01:25;10.95;;;5.63;;
37823;SDS011;23667;43.246;26.576;2022-07-10T02:03:51;11.35;;;5.40;;
37823;SDS011;23667;43.246;26.576;2022-07-10T02:06:35;8.32;;;5.30;;
37823;SDS011;23667;43.246;26.576;2022-07-10T02:09:00;10.80;;;5.50;;
37823;SDS011;23667;43.246;26.576;2022-07-10T02:11:26;10.50;;;5.03;;
37823;SDS011;23667;43.246;26.576;2022-07-10T02:13:51;10.93;;;5.43;;
37823;SDS011;23667;43.246;26.576;2022-07-10T02:16:17;5.82;;;5.22;;
37823;SDS011;23667;43.246;26.576;2022-07-10T02:18:42;5.63;;;5.10;;
37823;SDS011;23667;43.246;26.576;2022-07-10T02:21:08;6.35;;;5.35;;
37823;SDS011;23667;43.246;26.576;2022-07-10T02:23:34;6.18;;;5.63;;
37823;SDS011;23667;43.246;26.576;2022-07-10T02:26:00;11.07;;;5.45;;
37823;SDS011;23667;43.246;26.576;2022-07-10T02:28:26;6.50;;;5.85;;
37823;SDS011;23667;43.246;26.576;2022-07-10T02:30:52;9.45;;;5.78;;
37823;SDS011;23667;43.246;26.576;2022-07-10T02:33:18;7.10;;;5.88;;
37823;SDS011;23667;43.246;26.576;2022-07-10T02:35:44;8.48;;;5.85;;
37823;SDS011;23667;43.246;26.576;2022-07-10T02:38:09;7.82;;;6.75;;
37823;SDS011;23667;43.246;26.576;2022-07-10T02:40:35;6.88;;;6.28;;
37823;SDS011;23667;43.246;26.576;2022-07-10T02:43:00;9.02;;;6.22;;
37823;SDS011;23667;43.246;26.576;2022-07-10T02:45:26;11.18;;;5.65;;
37823;SDS011;23667;43.246;26.576;2022-07-10T02:47:51;13.60;;;6.43;;
37823;SDS011;23667;43.246;26.576;2022-07-10T02:50:17;10.40;;;6.22;;
37823;SDS011;23667;43.246;26.576;2022-07-10T02:52:42;7.20;;;6.57;;
37823;SDS011;23667;43.246;26.576;2022-07-10T02:55:08;7.95;;;6.40;;
37823;SDS011;23667;43.246;26.576;2022-07-10T02:57:33;7.75;;;6.47;;
37823;SDS011;23667;43.246;26.576;2022-07-10T02:59:59;7.53;;;6.82;;
37823;SDS011;23667;43.246;26.576;2022-07-10T03:02:24;9.07;;;6.60;;
37823;SDS011;23667;43.246;26.576;2022-07-10T03:04:50;7.50;;;6.05;;
37823;SDS011;23667;43.246;26.576;2022-07-10T03:07:15;7.18;;;6.47;;
37823;SDS011;23667;43.246;26.576;2022-07-10T03:09:41;7.18;;;6.40;;
37823;SDS011;23667;43.246;26.576;2022-07-10T03:12:06;7.35;;;6.10;;
37823;SDS011;23667;43.246;26.576;2022-07-10T03:14:32;9.18;;;6.13;;
37823;SDS011;23667;43.246;26.576;2022-07-10T03:16:57;13.43;;;7.22;;
37823;SDS011;23667;43.246;26.576;2022-07-10T03:19:23;10.85;;;6.35;;
37823;SDS011;23667;43.246;26.576;2022-07-10T03:21:49;8.48;;;6.35;;
37823;SDS011;23667;43.246;26.576;2022-07-10T03:24:14;9.85;;;7.22;;
37823;SDS011;23667;43.246;26.576;2022-07-10T03:26:39;8.75;;;6.20;;
37823;SDS011;23667;43.246;26.576;2022-07-10T03:29:05;7.68;;;6.38;;
37823;SDS011;23667;43.246;26.576;2022-07-10T03:31:31;10.45;;;6.43;;
37823;SDS011;23667;43.246;26.576;2022-07-10T03:33:56;7.07;;;6.38;;
37823;SDS011;23667;43.246;26.576;2022-07-10T03:36:22;7.95;;;6.00;;
37823;SDS011;23667;43.246;26.576;2022-07-10T03:38:47;6.25;;;5.65;;
37823;SDS011;23667;43.246;26.576;2022-07-10T03:41:13;7.10;;;6.03;;
37823;SDS011;23667;43.246;26.576;2022-07-10T03:43:39;7.63;;;5.15;;
37823;SDS011;23667;43.246;26.576;2022-07-10T03:46:05;8.23;;;5.47;;
37823;SDS011;23667;43.246;26.576;2022-07-10T03:48:31;10.00;;;5.78;;
37823;SDS011;23667;43.246;26.576;2022-07-10T03:50:57;8.18;;;5.25;;
37823;SDS011;23667;43.246;26.576;2022-07-10T03:53:23;7.88;;;5.45;;
37823;SDS011;23667;43.246;26.576;2022-07-10T03:55:50;6.03;;;5.53;;
37823;SDS011;23667;43.246;26.576;2022-07-10T03:58:17;9.77;;;5.25;;
37823;SDS011;23667;43.246;26.576;2022-07-10T04:00:43;6.15;;;5.35;;
37823;SDS011;23667;43.246;26.576;2022-07-10T04:03:08;10.52;;;5.18;;
37823;SDS011;23667;43.246;26.576;2022-07-10T04:05:34;7.57;;;5.80;;
37823;SDS011;23667;43.246;26.576;2022-07-10T04:08:01;7.85;;;5.85;;
37823;SDS011;23667;43.246;26.576;2022-07-10T04:10:30;7.28;;;5.97;;
37823;SDS011;23667;43.246;26.576;2022-07-10T04:12:58;6.68;;;6.07;;
37823;SDS011;23667;43.246;26.576;2022-07-10T04:15:24;10.88;;;5.47;;
37823;SDS011;23667;43.246;26.576;2022-07-10T04:17:50;8.10;;;5.95;;
37823;SDS011;23667;43.246;26.576;2022-07-10T04:20:17;8.45;;;6.95;;
37823;SDS011;23667;43.246;26.576;2022-07-10T04:22:43;6.35;;;5.60;;
37823;SDS011;23667;43.246;26.576;2022-07-10T04:25:09;6.07;;;5.55;;
37823;SDS011;23667;43.246;26.576;2022-07-10T04:27:35;10.82;;;5.80;;
37823;SDS011;23667;43.246;26.576;2022-07-10T04:30:01;14.05;;;4.68;;
37823;SDS011;23667;43.246;26.576;2022-07-10T04:32:27;5.30;;;4.75;;
37823;SDS011;23667;43.246;26.576;2022-07-10T04:34:53;4.18;;;3.78;;
37823;SDS011;23667;43.246;26.576;2022-07-10T04:37:19;7.95;;;3.65;;
37823;SDS011;23667;43.246;26.576;2022-07-10T04:39:45;6.03;;;3.22;;
37823;SDS011;23667;43.246;26.576;2022-07-10T04:42:11;4.38;;;3.25;;
37823;SDS011;23667;43.246;26.576;2022-07-10T04:44:36;3.53;;;2.72;;
37823;SDS011;23667;43.246;26.576;2022-07-10T04:47:03;5.35;;;3.30;;
37823;SDS011;23667;43.246;26.576;2022-07-10T04:49:29;3.97;;;3.13;;
37823;SDS011;23667;43.246;26.576;2022-07-10T04:51:55;6.10;;;2.67;;
37823;SDS011;23667;43.246;26.576;2022-07-10T04:54:21;4.63;;;2.83;;
37823;SDS011;23667;43.246;26.576;2022-07-10T04:56:47;7.88;;;3.10;;
37823;SDS011;23667;43.246;26.576;2022-07-10T04:59:13;6.30;;;2.80;;
37823;SDS011;23667;43.246;26.576;2022-07-10T05:01:39;3.25;;;2.28;;
37823;SDS011;23667;43.246;26.576;2022-07-10T05:04:04;3.58;;;2.75;;
37823;SDS011;23667;43.246;26.576;2022-07-10T05:06:30;4.20;;;2.45;;
37823;SDS011;23667;43.246;26.576;2022-07-10T05:08:55;3.67;;;2.50;;
37823;SDS011;23667;43.246;26.576;2022-07-10T05:11:21;2.85;;;2.00;;
37823;SDS011;23667;43.246;26.576;2022-07-10T05:13:48;5.30;;;2.10;;
37823;SDS011;23667;43.246;26.576;2022-07-10T05:16:14;2.92;;;2.08;;
37823;SDS011;23667;43.246;26.576;2022-07-10T05:18:40;2.42;;;1.90;;
37823;SDS011;23667;43.246;26.576;2022-07-10T05:21:06;4.05;;;1.38;;
37823;SDS011;23667;43.246;26.576;2022-07-10T05:23:32;5.38;;;2.20;;
37823;SDS011;23667;43.246;26.576;2022-07-10T05:25:57;2.55;;;1.80;;
37823;SDS011;23667;43.246;26.576;2022-07-10T05:28:23;4.70;;;1.80;;
37823;SDS011;23667;43.246;26.576;2022-07-10T05:30:48;8.88;;;1.08;;
37823;SDS011;23667;43.246;26.576;2022-07-10T05:33:14;3.80;;;1.60;;
37823;SDS011;23667;43.246;26.576;2022-07-10T05:35:40;9.35;;;1.65;;
37823;SDS011;23667;43.246;26.576;2022-07-10T05:38:06;6.57;;;1.70;;
37823;SDS011;23667;43.246;26.576;2022-07-10T05:40:32;5.97;;;1.45;;
37823;SDS011;23667;43.246;26.576;2022-07-10T05:42:57;2.75;;;1.35;;
37823;SDS011;23667;43.246;26.576;2022-07-10T05:45:23;5.00;;;1.33;;
37823;SDS011;23667;43.246;26.576;2022-07-10T05:47:49;2.90;;;0.93;;
37823;SDS011;23667;43.246;26.576;2022-07-10T05:50:15;1.83;;;0.90;;
37823;SDS011;23667;43.246;26.576;2022-07-10T05:52:41;2.47;;;0.75;;
37823;SDS011;23667;43.246;26.576;2022-07-10T05:55:07;3.28;;;0.60;;
37823;SDS011;23667;43.246;26.576;2022-07-10T05:57:33;4.22;;;0.80;;
37823;SDS011;23667;43.246;26.576;2022-07-10T05:59:59;6.28;;;0.60;;
37823;SDS011;23667;43.246;26.576;2022-07-10T06:02:25;3.30;;;0.85;;
37823;SDS011;23667;43.246;26.576;2022-07-10T06:04:51;1.90;;;0.80;;
37823;SDS011;23667;43.246;26.576;2022-07-10T06:07:17;4.70;;;1.05;;
37823;SDS011;23667;43.246;26.576;2022-07-10T06:09:43;3.22;;;1.00;;
37823;SDS011;23667;43.246;26.576;2022-07-10T06:12:08;4.63;;;1.00;;
37823;SDS011;23667;43.246;26.576;2022-07-10T06:14:34;2.42;;;0.70;;
37823;SDS011;23667;43.246;26.576;2022-07-10T06:16:59;4.05;;;1.30;;
37823;SDS011;23667;43.246;26.576;2022-07-10T06:19:25;4.53;;;0.70;;
37823;SDS011;23667;43.246;26.576;2022-07-10T06:21:50;7.72;;;1.00;;
37823;SDS011;23667;43.246;26.576;2022-07-10T06:24:36;8.00;;;1.00;;
37823;SDS011;23667;43.246;26.576;2022-07-10T06:27:02;6.40;;;1.00;;
37823;SDS011;23667;43.246;26.576;2022-07-10T06:29:27;7.63;;;0.80;;
37823;SDS011;23667;43.246;26.576;2022-07-10T06:31:53;3.22;;;0.80;;
37823;SDS011;23667;43.246;26.576;2022-07-10T06:34:18;4.75;;;1.25;;
37823;SDS011;23667;43.246;26.576;2022-07-10T06:36:45;4.68;;;1.10;;
37823;SDS011;23667;43.246;26.576;2022-07-10T06:39:10;2.00;;;0.73;;
37823;SDS011;23667;43.246;26.576;2022-07-10T06:41:36;3.40;;;0.82;;
37823;SDS011;23667;43.246;26.576;2022-07-10T06:44:04;2.63;;;0.75;;
37823;SDS011;23667;43.246;26.576;2022-07-10T06:46:29;1.52;;;0.60;;
37823;SDS011;23667;43.246;26.576;2022-07-10T06:48:56;3.83;;;0.60;;
37823;SDS011;23667;43.246;26.576;2022-07-10T06:51:21;2.97;;;0.70;;
37823;SDS011;23667;43.246;26.576;2022-07-10T06:53:47;4.22;;;0.63;;
37823;SDS011;23667;43.246;26.576;2022-07-10T06:56:13;2.17;;;0.70;;
37823;SDS011;23667;43.246;26.576;2022-07-10T06:58:40;3.40;;;0.52;;
37823;SDS011;23667;43.246;26.576;2022-07-10T07:01:06;3.95;;;0.60;;
37823;SDS011;23667;43.246;26.576;2022-07-10T07:03:31;2.95;;;0.60;;
37823;SDS011;23667;43.246;26.576;2022-07-10T07:05:57;3.38;;;0.60;;
37823;SDS011;23667;43.246;26.576;2022-07-10T07:08:22;6.97;;;0.90;;
37823;SDS011;23667;43.246;26.576;2022-07-10T07:10:48;2.90;;;0.68;;
37823;SDS011;23667;43.246;26.576;2022-07-10T07:13:13;5.75;;;0.60;;
37823;SDS011;23667;43.246;26.576;2022-07-10T07:15:39;1.17;;;0.70;;
37823;SDS011;23667;43.246;26.576;2022-07-10T07:18:07;2.30;;;0.50;;
37823;SDS011;23667;43.246;26.576;2022-07-10T07:20:36;5.13;;;0.60;;
37823;SDS011;23667;43.246;26.576;2022-07-10T07:23:21;2.55;;;0.45;;
37823;SDS011;23667;43.246;26.576;2022-07-10T07:25:47;3.28;;;0.50;;
37823;SDS011;23667;43.246;26.576;2022-07-10T07:28:13;5.55;;;1.27;;
37823;SDS011;23667;43.246;26.576;2022-07-10T07:30:43;1.48;;;0.47;;
37823;SDS011;23667;43.246;26.576;2022-07-10T07:33:10;1.58;;;0.60;;
37823;SDS011;23667;43.246;26.576;2022-07-10T07:35:35;1.80;;;0.65;;
37823;SDS011;23667;43.246;26.576;2022-07-10T07:38:02;1.70;;;0.47;;
37823;SDS011;23667;43.246;26.576;2022-07-10T07:40:28;2.20;;;0.70;;
37823;SDS011;23667;43.246;26.576;2022-07-10T07:42:54;2.15;;;0.50;;
37823;SDS011;23667;43.246;26.576;2022-07-10T07:45:21;2.10;;;0.57;;
37823;SDS011;23667;43.246;26.576;2022-07-10T07:47:48;3.65;;;0.82;;
37823;SDS011;23667;43.246;26.576;2022-07-10T07:50:17;5.60;;;0.50;;
37823;SDS011;23667;43.246;26.576;2022-07-10T07:52:44;4.32;;;0.70;;
37823;SDS011;23667;43.246;26.576;2022-07-10T07:55:10;4.85;;;0.70;;
37823;SDS011;23667;43.246;26.576;2022-07-10T07:57:37;1.98;;;0.50;;
37823;SDS011;23667;43.246;26.576;2022-07-10T08:00:04;2.08;;;0.50;;
37823;SDS011;23667;43.246;26.576;2022-07-10T08:02:32;1.38;;;0.52;;
37823;SDS011;23667;43.246;26.576;2022-07-10T08:04:57;1.60;;;0.50;;
37823;SDS011;23667;43.246;26.576;2022-07-10T08:07:23;2.15;;;0.50;;
37823;SDS011;23667;43.246;26.576;2022-07-10T08:10:18;2.92;;;0.40;;
37823;SDS011;23667;43.246;26.576;2022-07-10T08:12:45;1.77;;;0.45;;
37823;SDS011;23667;43.246;26.576;2022-07-10T08:15:12;1.83;;;0.50;;
37823;SDS011;23667;43.246;26.576;2022-07-10T08:17:40;2.15;;;0.73;;
37823;SDS011;23667;43.246;26.576;2022-07-10T08:20:06;1.40;;;0.47;;
37823;SDS011;23667;43.246;26.576;2022-07-10T08:22:33;2.05;;;0.43;;
37823;SDS011;23667;43.246;26.576;2022-07-10T08:24:59;3.45;;;0.55;;
37823;SDS011;23667;43.246;26.576;2022-07-10T08:27:25;4.43;;;0.65;;
37823;SDS011;23667;43.246;26.576;2022-07-10T08:29:51;2.47;;;0.60;;
37823;SDS011;23667;43.246;26.576;2022-07-10T08:32:16;7.38;;;0.57;;
37823;SDS011;23667;43.246;26.576;2022-07-10T08:34:42;7.18;;;0.77;;
37823;SDS011;23667;43.246;26.576;2022-07-10T08:37:08;2.15;;;0.80;;
37823;SDS011;23667;43.246;26.576;2022-07-10T08:39:33;3.30;;;0.50;;
37823;SDS011;23667;43.246;26.576;2022-07-10T08:41:59;3.67;;;1.17;;
37823;SDS011;23667;43.246;26.576;2022-07-10T08:44:25;4.25;;;1.00;;
37823;SDS011;23667;43.246;26.576;2022-07-10T08:46:51;2.22;;;0.50;;
37823;SDS011;23667;43.246;26.576;2022-07-10T08:49:17;3.53;;;0.57;;
37823;SDS011;23667;43.246;26.576;2022-07-10T08:54:31;1.58;;;0.50;;
37823;SDS011;23667;43.246;26.576;2022-07-10T08:57:02;1.25;;;0.50;;
37823;SDS011;23667;43.246;26.576;2022-07-10T08:59:28;1.77;;;0.68;;
37823;SDS011;23667;43.246;26.576;2022-07-10T09:01:55;1.77;;;0.65;;
37823;SDS011;23667;43.246;26.576;2022-07-10T09:04:22;2.15;;;0.55;;
37823;SDS011;23667;43.246;26.576;2022-07-10T09:06:50;4.93;;;0.70;;
37823;SDS011;23667;43.246;26.576;2022-07-10T09:09:17;3.55;;;0.60;;
37823;SDS011;23667;43.246;26.576;2022-07-10T09:11:43;3.42;;;0.50;;
37823;SDS011;23667;43.246;26.576;2022-07-10T09:14:09;4.57;;;0.55;;
37823;SDS011;23667;43.246;26.576;2022-07-10T09:16:40;2.17;;;0.68;;
37823;SDS011;23667;43.246;26.576;2022-07-10T09:19:19;1.52;;;0.40;;
37823;SDS011;23667;43.246;26.576;2022-07-10T09:21:48;2.50;;;0.60;;
37823;SDS011;23667;43.246;26.576;2022-07-10T09:24:15;1.70;;;0.60;;
37823;SDS011;23667;43.246;26.576;2022-07-10T09:26:47;3.25;;;0.70;;
37823;SDS011;23667;43.246;26.576;2022-07-10T09:29:25;6.15;;;0.65;;
37823;SDS011;23667;43.246;26.576;2022-07-10T09:37:20;1.33;;;0.60;;
37823;SDS011;23667;43.246;26.576;2022-07-10T09:39:59;2.88;;;0.60;;
37823;SDS011;23667;43.246;26.576;2022-07-10T09:42:36;2.47;;;0.70;;
37823;SDS011;23667;43.246;26.576;2022-07-10T09:45:12;8.25;;;0.70;;
37823;SDS011;23667;43.246;26.576;2022-07-10T09:53:11;2.67;;;0.73;;
37823;SDS011;23667;43.246;26.576;2022-07-10T09:55:37;2.40;;;0.77;;
37823;SDS011;23667;43.246;26.576;2022-07-10T09:58:03;6.22;;;0.60;;
37823;SDS011;23667;43.246;26.576;2022-07-10T10:00:31;3.53;;;0.60;;
37823;SDS011;23667;43.246;26.576;2022-07-10T10:02:58;5.30;;;0.90;;
37823;SDS011;23667;43.246;26.576;2022-07-10T10:05:26;2.28;;;0.57;;
37823;SDS011;23667;43.246;26.576;2022-07-10T10:08:16;3.15;;;0.50;;
37823;SDS011;23667;43.246;26.576;2022-07-10T10:10:45;4.13;;;0.80;;
37823;SDS011;23667;43.246;26.576;2022-07-10T10:13:14;6.47;;;1.00;;
37823;SDS011;23667;43.246;26.576;2022-07-10T10:18:24;3.95;;;0.77;;
37823;SDS011;23667;43.246;26.576;2022-07-10T10:20:51;4.50;;;0.70;;
37823;SDS011;23667;43.246;26.576;2022-07-10T10:23:19;7.47;;;0.77;;
37823;SDS011;23667;43.246;26.576;2022-07-10T10:25:47;3.13;;;0.60;;
37823;SDS011;23667;43.246;26.576;2022-07-10T10:28:17;5.95;;;0.70;;
37823;SDS011;23667;43.246;26.576;2022-07-10T10:30:54;3.30;;;0.70;;
37823;SDS011;23667;43.246;26.576;2022-07-10T10:35:57;5.68;;;0.65;;
37823;SDS011;23667;43.246;26.576;2022-07-10T10:38:23;3.22;;;0.50;;
37823;SDS011;23667;43.246;26.576;2022-07-10T10:40:49;1.02;;;0.47;;
37823;SDS011;23667;43.246;26.576;2022-07-10T10:43:15;1.55;;;0.52;;
37823;SDS011;23667;43.246;26.576;2022-07-10T10:45:42;2.47;;;0.70;;
37823;SDS011;23667;43.246;26.576;2022-07-10T10:48:09;2.58;;;0.63;;
37823;SDS011;23667;43.246;26.576;2022-07-10T10:50:42;2.85;;;0.60;;
37823;SDS011;23667;43.246;26.576;2022-07-10T10:53:13;2.40;;;0.60;;
37823;SDS011;23667;43.246;26.576;2022-07-10T10:58:26;1.90;;;0.50;;
37823;SDS011;23667;43.246;26.576;2022-07-10T11:01:02;2.85;;;0.60;;
37823;SDS011;23667;43.246;26.576;2022-07-10T11:03:28;2.33;;;0.70;;
37823;SDS011;23667;43.246;26.576;2022-07-10T11:05:54;3.58;;;0.75;;
37823;SDS011;23667;43.246;26.576;2022-07-10T11:08:36;3.13;;;0.50;;
37823;SDS011;23667;43.246;26.576;2022-07-10T11:13:57;2.58;;;0.77;;
37823;SDS011;23667;43.246;26.576;2022-07-10T11:16:23;9.02;;;0.80;;
37823;SDS011;23667;43.246;26.576;2022-07-10T11:18:52;3.55;;;1.67;;
37823;SDS011;23667;43.246;26.576;2022-07-10T11:21:22;4.00;;;1.00;;
37823;SDS011;23667;43.246;26.576;2022-07-10T11:29:37;1.23;;;0.70;;
37823;SDS011;23667;43.246;26.576;2022-07-10T11:32:04;3.83;;;0.60;;
37823;SDS011;23667;43.246;26.576;2022-07-10T11:34:35;4.40;;;0.93;;
37823;SDS011;23667;43.246;26.576;2022-07-10T11:37:02;1.65;;;0.50;;
37823;SDS011;23667;43.246;26.576;2022-07-10T11:39:28;2.95;;;0.70;;
37823;SDS011;23667;43.246;26.576;2022-07-10T11:41:53;2.15;;;0.55;;
37823;SDS011;23667;43.246;26.576;2022-07-10T11:44:19;2.28;;;0.65;;
37823;SDS011;23667;43.246;26.576;2022-07-10T11:46:46;3.35;;;0.55;;
37823;SDS011;23667;43.246;26.576;2022-07-10T11:49:14;3.13;;;0.75;;
37823;SDS011;23667;43.246;26.576;2022-07-10T11:51:42;0.88;;;0.60;;
37823;SDS011;23667;43.246;26.576;2022-07-10T11:54:10;3.78;;;0.70;;
37823;SDS011;23667;43.246;26.576;2022-07-10T11:56:41;3.60;;;0.70;;
37823;SDS011;23667;43.246;26.576;2022-07-10T11:59:12;3.35;;;0.88;;
37823;SDS011;23667;43.246;26.576;2022-07-10T12:01:43;2.72;;;1.10;;
37823;SDS011;23667;43.246;26.576;2022-07-10T12:04:10;1.60;;;0.73;;
37823;SDS011;23667;43.246;26.576;2022-07-10T12:06:37;12.30;;;1.33;;
37823;SDS011;23667;43.246;26.576;2022-07-10T12:09:08;5.55;;;0.93;;
37823;SDS011;23667;43.246;26.576;2022-07-10T12:11:38;4.32;;;1.08;;
37823;SDS011;23667;43.246;26.576;2022-07-10T12:14:15;7.00;;;1.33;;
37823;SDS011;23667;43.246;26.576;2022-07-10T12:16:48;3.25;;;1.00;;
37823;SDS011;23667;43.246;26.576;2022-07-10T12:19:17;3.28;;;1.30;;
37823;SDS011;23667;43.246;26.576;2022-07-10T12:21:45;7.40;;;2.10;;
37823;SDS011;23667;43.246;26.576;2022-07-10T12:24:15;9.45;;;1.75;;
37823;SDS011;23667;43.246;26.576;2022-07-10T12:26:42;7.45;;;1.45;;
37823;SDS011;23667;43.246;26.576;2022-07-10T12:29:18;4.78;;;1.80;;
37823;SDS011;23667;43.246;26.576;2022-07-10T12:31:47;4.97;;;1.55;;
37823;SDS011;23667;43.246;26.576;2022-07-10T12:34:14;2.65;;;1.70;;
37823;SDS011;23667;43.246;26.576;2022-07-10T12:36:45;2.95;;;1.45;;
37823;SDS011;23667;43.246;26.576;2022-07-10T12:39:11;3.10;;;1.67;;
37823;SDS011;23667;43.246;26.576;2022-07-10T12:52:23;2.25;;;1.50;;
37823;SDS011;23667;43.246;26.576;2022-07-10T13:00:17;4.70;;;1.30;;
37823;SDS011;23667;43.246;26.576;2022-07-10T13:03:05;2.88;;;1.33;;
37823;SDS011;23667;43.246;26.576;2022-07-10T13:05:32;3.97;;;1.27;;
37823;SDS011;23667;43.246;26.576;2022-07-10T13:08:16;2.08;;;0.90;;
37823;SDS011;23667;43.246;26.576;2022-07-10T13:10:45;1.25;;;1.02;;
37823;SDS011;23667;43.246;26.576;2022-07-10T13:13:13;3.03;;;0.85;;
37823;SDS011;23667;43.246;26.576;2022-07-10T13:15:39;2.35;;;0.90;;
37823;SDS011;23667;43.246;26.576;2022-07-10T13:18:18;1.77;;;0.95;;
37823;SDS011;23667;43.246;26.576;2022-07-10T13:20:47;3.67;;;1.05;;
37823;SDS011;23667;43.246;26.576;2022-07-10T13:23:14;2.20;;;0.80;;
37823;SDS011;23667;43.246;26.576;2022-07-10T13:25:40;3.63;;;1.10;;
37823;SDS011;23667;43.246;26.576;2022-07-10T13:28:07;2.85;;;0.80;;
37823;SDS011;23667;43.246;26.576;2022-07-10T13:30:34;2.42;;;1.27;;
37823;SDS011;23667;43.246;26.576;2022-07-10T13:33:00;9.02;;;1.20;;
37823;SDS011;23667;43.246;26.576;2022-07-10T13:35:29;2.30;;;1.00;;
37823;SDS011;23667;43.246;26.576;2022-07-10T13:37:59;3.95;;;1.00;;
37823;SDS011;23667;43.246;26.576;2022-07-10T13:40:26;3.42;;;1.20;;
37823;SDS011;23667;43.246;26.576;2022-07-10T13:42:52;3.25;;;1.10;;
37823;SDS011;23667;43.246;26.576;2022-07-10T13:45:18;2.63;;;1.00;;
37823;SDS011;23667;43.246;26.576;2022-07-10T13:47:45;3.75;;;1.50;;
37823;SDS011;23667;43.246;26.576;2022-07-10T13:50:11;2.80;;;1.73;;
37823;SDS011;23667;43.246;26.576;2022-07-10T13:52:37;6.20;;;2.20;;
37823;SDS011;23667;43.246;26.576;2022-07-10T13:55:02;7.97;;;1.55;;
37823;SDS011;23667;43.246;26.576;2022-07-10T13:57:29;3.85;;;1.65;;
37823;SDS011;23667;43.246;26.576;2022-07-10T13:59:55;6.70;;;1.40;;
37823;SDS011;23667;43.246;26.576;2022-07-10T14:02:21;5.03;;;2.08;;
37823;SDS011;23667;43.246;26.576;2022-07-10T14:04:46;2.88;;;1.58;;
37823;SDS011;23667;43.246;26.576;2022-07-10T14:07:12;4.60;;;1.40;;
37823;SDS011;23667;43.246;26.576;2022-07-10T14:09:37;5.13;;;1.40;;
37823;SDS011;23667;43.246;26.576;2022-07-10T14:12:03;4.60;;;2.50;;
37823;SDS011;23667;43.246;26.576;2022-07-10T14:14:29;15.52;;;7.43;;
37823;SDS011;23667;43.246;26.576;2022-07-10T14:16:54;2.67;;;1.38;;
37823;SDS011;23667;43.246;26.576;2022-07-10T14:19:20;2.95;;;1.25;;
37823;SDS011;23667;43.246;26.576;2022-07-10T14:21:45;3.05;;;1.50;;
37823;SDS011;23667;43.246;26.576;2022-07-10T14:24:11;3.40;;;2.22;;
37823;SDS011;23667;43.246;26.576;2022-07-10T14:26:37;3.95;;;1.25;;
37823;SDS011;23667;43.246;26.576;2022-07-10T14:29:02;2.85;;;1.50;;
37823;SDS011;23667;43.246;26.576;2022-07-10T14:31:28;9.38;;;5.13;;
37823;SDS011;23667;43.246;26.576;2022-07-10T14:33:54;12.90;;;4.13;;
37823;SDS011;23667;43.246;26.576;2022-07-10T14:36:20;3.78;;;1.20;;
37823;SDS011;23667;43.246;26.576;2022-07-10T14:38:47;3.28;;;1.30;;
37823;SDS011;23667;43.246;26.576;2022-07-10T14:41:13;2.65;;;1.67;;
37823;SDS011;23667;43.246;26.576;2022-07-10T14:43:40;4.00;;;1.20;;
37823;SDS011;23667;43.246;26.576;2022-07-10T14:46:05;28.90;;;2.92;;
37823;SDS011;23667;43.246;26.576;2022-07-10T14:48:31;39.55;;;4.03;;
37823;SDS011;23667;43.246;26.576;2022-07-10T14:50:59;14.40;;;2.63;;
37823;SDS011;23667;43.246;26.576;2022-07-10T14:53:25;21.13;;;3.67;;
37823;SDS011;23667;43.246;26.576;2022-07-10T14:55:51;10.52;;;3.83;;
37823;SDS011;23667;43.246;26.576;2022-07-10T14:58:17;13.90;;;2.60;;
37823;SDS011;23667;43.246;26.576;2022-07-10T15:00:43;12.05;;;4.28;;
37823;SDS011;23667;43.246;26.576;2022-07-10T15:03:08;14.60;;;6.78;;
37823;SDS011;23667;43.246;26.576;2022-07-10T15:05:34;16.20;;;9.00;;
37823;SDS011;23667;43.246;26.576;2022-07-10T15:08:00;16.85;;;9.57;;
37823;SDS011;23667;43.246;26.576;2022-07-10T15:10:26;12.77;;;7.70;;
37823;SDS011;23667;43.246;26.576;2022-07-10T15:12:52;6.32;;;4.47;;
37823;SDS011;23667;43.246;26.576;2022-07-10T15:15:17;8.93;;;5.97;;
37823;SDS011;23667;43.246;26.576;2022-07-10T15:17:43;7.95;;;6.95;;
37823;SDS011;23667;43.246;26.576;2022-07-10T15:20:09;11.07;;;7.97;;